Time;durP1;ratioP1;P1;durP2;ratioP2;P2;SDS_P1;SDS_P2;PMS_P1;PMS_P2;Temp;Humidity;BMP_temperature;BMP_pressure;BME280_temperature;BME280_humidity;BME280_pressure;Samples;Min_cycle;Max_cycle;Signal;HPM_P1;HPM_P2
2023/12/10 00:01:58;;;;;;;57.10;32.53;;;;;;;1.10;65.23;93780.19;4883829;29;20422;-82
2023/12/10 00:04:24;;;;;;;53.22;33.05;;;;;;;1.22;64.47;93772.91;4897338;29;20032;-81
2023/12/10 00:06:49;;;;;;;61.28;32.75;;;;;;;0.88;66.05;93769.06;4884289;29;20039;-82
2023/12/10 00:09:15;;;;;;;58.95;33.03;;;;;;;1.07;64.95;93779.91;4882002;29;20435;-82
2023/12/10 00:11:40;;;;;;;59.33;34.05;;;;;;;0.43;66.61;93759.09;4886370;29;20845;-82
2023/12/10 00:14:05;;;;;;;65.07;36.05;;;;;;;0.24;68.13;93757.91;4881263;29;20404;-79
2023/12/10 00:16:31;;;;;;;62.38;35.78;;;;;;;0.30;68.21;93760.31;4884942;29;20036;-81
2023/12/10 00:18:57;;;;;;;66.40;35.35;;;;;;;0.21;68.52;93763.63;4885311;29;20032;-82
2023/12/10 00:21:22;;;;;;;62.38;34.15;;;;;;;-0.04;69.06;93753.75;4886373;29;20119;-80
2023/12/10 00:23:48;;;;;;;65.03;34.85;;;;;;;0.16;68.62;93758.34;4883903;29;20560;-79
2023/12/10 00:26:14;;;;;;;61.45;33.13;;;;;;;0.16;68.60;93748.69;4884255;29;20036;-80
2023/12/10 00:28:40;;;;;;;59.45;34.20;;;;;;;0.47;67.95;93769.84;4881217;29;20469;-81
2023/12/10 00:31:08;;;;;;;55.67;34.10;;;;;;;0.59;67.05;93773.88;4885763;29;20450;-78
2023/12/10 00:33:34;;;;;;;58.10;33.45;;;;;;;0.45;67.42;93758.84;4884820;29;20084;-81
2023/12/10 00:35:59;;;;;;;59.03;33.35;;;;;;;0.96;66.19;93778.25;4884771;29;20127;-82
2023/12/10 00:38:25;;;;;;;58.15;34.33;;;;;;;0.98;64.93;93747.38;4884522;29;20505;-82
2023/12/10 00:40:50;;;;;;;53.65;31.50;;;;;;;0.79;65.20;93745.19;4885848;29;20024;-82
2023/12/10 00:43:16;;;;;;;51.42;30.20;;;;;;;0.73;66.51;93761.13;4885786;29;20071;-81
2023/12/10 00:45:42;;;;;;;60.28;33.33;;;;;;;0.51;66.87;93750.78;4883652;29;20036;-82
2023/12/10 00:48:08;;;;;;;50.95;30.85;;;;;;;0.67;66.64;93769.97;4884353;29;20547;-80
2023/12/10 00:50:34;;;;;;;56.47;34.00;;;;;;;0.66;66.83;93774.44;4883527;29;20120;-81
2023/12/10 00:53:03;;;;;;;53.33;31.67;;;;;;;0.38;67.75;93782.59;4886208;29;20111;-82
2023/12/10 00:55:28;;;;;;;57.92;33.05;;;;;;;0.63;67.26;93777.56;4885833;29;20501;-82
2023/12/10 00:57:54;;;;;;;54.95;32.45;;;;;;;0.59;66.68;93752.94;4886331;29;20040;-82
2023/12/10 01:00:19;;;;;;;49.83;30.30;;;;;;;0.83;66.59;93773.50;4891149;29;20516;-80
2023/12/10 01:02:45;;;;;;;53.80;30.98;;;;;;;0.60;65.91;93758.94;4892802;29;20044;-80
2023/12/10 01:05:11;;;;;;;54.28;30.95;;;;;;;0.32;67.34;93754.81;4892399;29;20130;-80
2023/12/10 01:07:36;;;;;;;50.72;30.45;;;;;;;0.25;67.73;93762.88;4884815;29;20029;-79
2023/12/10 01:10:05;;;;;;;50.65;31.38;;;;;;;0.11;68.30;93751.25;4881586;29;20048;-81
2023/12/10 01:12:35;;;;;;;52.50;29.98;;;;;;;-0.41;69.01;93690.97;4881800;29;20041;-81
2023/12/10 01:15:02;;;;;;;50.30;29.05;;;;;;;0.16;68.61;93732.19;4883348;29;20060;-81
2023/12/10 01:17:28;;;;;;;56.97;30.90;;;;;;;0.02;69.04;93762.41;4883288;29;20040;-80
2023/12/10 01:19:53;;;;;;;47.50;28.30;;;;;;;0.19;68.54;93763.91;4866664;29;20033;-81
2023/12/10 01:22:19;;;;;;;50.05;28.42;;;;;;;0.42;67.37;93720.88;4881707;29;20099;-81
2023/12/10 01:24:45;;;;;;;52.92;31.23;;;;;;;0.90;66.12;93745.22;4871011;29;20041;-81
2023/12/10 01:27:11;;;;;;;52.38;29.70;;;;;;;0.99;65.45;93730.59;4878364;29;20032;-81
2023/12/10 01:29:36;;;;;;;47.83;28.65;;;;;;;1.02;64.70;93694.25;4880380;29;20040;-80
2023/12/10 01:32:02;;;;;;;51.88;30.23;;;;;;;1.24;63.75;93720.22;4881729;29;20190;-81
2023/12/10 01:34:27;;;;;;;55.25;29.55;;;;;;;0.84;65.04;93717.47;4878768;29;20021;-81
2023/12/10 01:36:53;;;;;;;51.00;31.70;;;;;;;0.60;66.64;93723.09;4883754;29;20044;-80
2023/12/10 01:39:19;;;;;;;50.92;29.95;;;;;;;0.03;67.93;93702.03;4885559;29;20071;-80
2023/12/10 01:41:45;;;;;;;49.75;28.67;;;;;;;-0.02;68.86;93725.53;4881531;29;20033;-80
2023/12/10 01:44:12;;;;;;;61.05;32.00;;;;;;;0.02;69.07;93723.19;4883906;29;20041;-80
2023/12/10 01:46:37;;;;;;;54.20;30.00;;;;;;;-0.36;69.50;93670.09;4882703;29;20436;-81
2023/12/10 01:49:07;;;;;;;47.30;28.55;;;;;;;-0.24;69.67;93728.22;4884113;29;20687;-81
2023/12/10 01:51:34;;;;;;;50.72;28.67;;;;;;;-0.01;68.95;93703.59;4879262;29;21516;-80
2023/12/10 01:54:01;;;;;;;50.17;28.08;;;;;;;-0.10;68.83;93718.94;4881913;29;20044;-81
2023/12/10 01:56:28;;;;;;;47.30;26.75;;;;;;;0.25;67.50;93728.09;4883381;29;20041;-81
2023/12/10 01:58:54;;;;;;;45.88;27.15;;;;;;;0.34;66.73;93719.53;4879109;29;20060;-81
2023/12/10 02:01:20;;;;;;;46.45;26.05;;;;;;;0.53;66.35;93732.22;4883306;29;20704;-80
2023/12/10 02:03:46;;;;;;;45.15;26.95;;;;;;;0.41;66.35;93737.63;4882803;29;20037;-81
2023/12/10 02:06:12;;;;;;;41.92;25.20;;;;;;;0.30;66.74;93707.22;4886218;29;20044;-81
2023/12/10 02:08:37;;;;;;;43.95;25.27;;;;;;;0.80;65.21;93717.97;4881667;29;20093;-80
2023/12/10 02:11:03;;;;;;;43.00;26.48;;;;;;;0.93;64.72;93727.19;4876161;29;20036;-81
2023/12/10 02:13:29;;;;;;;43.47;26.30;;;;;;;1.26;63.86;93720.00;4883094;29;20035;-80
2023/12/10 02:15:54;;;;;;;45.75;27.48;;;;;;;1.41;63.01;93723.44;4877895;29;20040;-81
2023/12/10 02:18:20;;;;;;;43.45;28.33;;;;;;;1.13;63.34;93701.06;4894589;29;20136;-80
2023/12/10 02:20:49;;;;;;;48.67;29.17;;;;;;;1.53;62.50;93721.38;4879021;29;20119;-80
2023/12/10 02:23:35;;;;;;;41.35;25.55;;;;;;;1.64;62.09;93719.56;4880671;29;20043;-79
2023/12/10 02:26:01;;;;;;;45.53;26.00;;;;;;;1.85;61.67;93730.88;4878281;29;20028;-80
2023/12/10 02:28:27;;;;;;;45.50;27.67;;;;;;;1.62;61.38;93705.91;4883783;29;20527;-81
2023/12/10 02:30:52;;;;;;;47.05;26.52;;;;;;;1.57;61.29;93680.47;4880378;29;21762;-81
2023/12/10 02:33:18;;;;;;;49.17;27.13;;;;;;;1.29;62.43;93709.78;4882511;29;20056;-81
2023/12/10 02:35:44;;;;;;;44.83;26.67;;;;;;;1.39;63.14;93720.28;4882010;29;20508;-79
2023/12/10 02:38:09;;;;;;;48.72;26.95;;;;;;;1.36;62.15;93688.56;4896072;29;20532;-81
2023/12/10 02:40:34;;;;;;;44.80;26.27;;;;;;;1.52;62.04;93703.31;4878180;29;20103;-81
2023/12/10 02:43:00;;;;;;;48.65;28.25;;;;;;;1.25;63.11;93698.25;4883008;29;20028;-80
2023/12/10 02:45:26;;;;;;;49.63;28.55;;;;;;;1.29;63.41;93709.78;4881815;29;20044;-79
2023/12/10 02:47:51;;;;;;;50.42;29.77;;;;;;;1.27;63.65;93698.00;4881134;29;20402;-81
2023/12/10 02:50:17;;;;;;;48.33;28.05;;;;;;;1.13;63.91;93682.75;4880962;29;20573;-80
2023/12/10 02:52:42;;;;;;;49.38;27.70;;;;;;;1.24;63.40;93673.06;4884211;29;20031;-79
2023/12/10 02:55:11;;;;;;;45.35;26.80;;;;;;;1.21;63.40;93700.59;4894780;29;20040;-83
2023/12/10 02:57:37;;;;;;;55.60;28.52;;;;;;;1.37;63.06;93701.44;4879703;29;20052;-78
2023/12/10 03:00:03;;;;;;;53.33;28.17;;;;;;;1.35;62.68;93692.25;4881267;29;20136;-82
2023/12/10 03:02:28;;;;;;;50.45;28.23;;;;;;;1.38;63.23;93710.06;4879843;29;20036;-81
2023/12/10 03:04:54;;;;;;;47.72;26.98;;;;;;;1.02;63.74;93693.44;4882222;29;20980;-82
2023/12/10 03:07:19;;;;;;;49.55;27.33;;;;;;;0.94;64.39;93692.09;4881136;29;20060;-82
2023/12/10 03:09:45;;;;;;;54.05;28.80;;;;;;;0.80;65.63;93685.75;4882604;29;20481;-82
2023/12/10 03:12:10;;;;;;;49.17;28.08;;;;;;;0.51;66.18;93677.50;4877678;29;20032;-80
2023/12/10 03:14:36;;;;;;;53.97;28.58;;;;;;;0.46;67.14;93695.00;4884359;29;20594;-82
2023/12/10 03:17:02;;;;;;;50.78;27.83;;;;;;;0.56;67.03;93674.91;4880386;29;20036;-81
2023/12/10 03:19:27;;;;;;;54.65;28.23;;;;;;;0.45;66.96;93686.34;4878435;29;20036;-80
2023/12/10 03:21:53;;;;;;;54.20;28.52;;;;;;;0.39;66.97;93679.53;4883389;29;20533;-82
2023/12/10 03:24:18;;;;;;;57.00;31.83;;;;;;;0.21;67.81;93674.69;4880825;29;20068;-81
2023/12/10 03:26:43;;;;;;;50.58;27.67;;;;;;;0.34;68.38;93677.69;4884248;29;20041;-82
2023/12/10 03:29:09;;;;;;;55.65;29.88;;;;;;;0.43;67.67;93672.75;4881323;29;20116;-82
2023/12/10 03:31:34;;;;;;;61.28;31.33;;;;;;;0.15;68.71;93683.56;4880837;29;20063;-82
2023/12/10 03:34:00;;;;;;;58.22;30.45;;;;;;;0.34;67.99;93687.34;4900435;29;20604;-81
2023/12/10 03:36:25;;;;;;;61.78;32.15;;;;;;;0.17;68.73;93694.56;4886623;29;20040;-78
2023/12/10 03:38:51;;;;;;;68.03;32.63;;;;;;;0.00;69.11;93676.41;4888417;29;20499;-81
2023/12/10 03:41:16;;;;;;;57.70;30.80;;;;;;;0.36;68.66;93700.97;4884420;29;20044;-83
2023/12/10 03:43:42;;;;;;;53.53;31.27;;;;;;;0.74;67.04;93692.78;4885238;29;20032;-82
2023/12/10 03:46:07;;;;;;;62.08;30.55;;;;;;;0.60;66.68;93673.34;4883676;29;20037;-82
2023/12/10 03:48:33;;;;;;;51.70;29.00;;;;;;;0.94;65.76;93696.53;4884892;29;20041;-82
2023/12/10 03:50:58;;;;;;;56.72;29.70;;;;;;;0.57;67.16;93680.94;4885789;29;20564;-81
2023/12/10 03:53:24;;;;;;;55.70;30.75;;;;;;;1.01;65.29;93681.41;4880833;29;20048;-81
2023/12/10 03:55:49;;;;;;;63.17;33.25;;;;;;;1.12;64.69;93690.88;4884660;29;20028;-80
2023/12/10 03:58:15;;;;;;;56.88;30.33;;;;;;;0.94;65.65;93686.06;4883373;29;20139;-81
2023/12/10 04:00:43;;;;;;;53.75;30.40;;;;;;;1.38;64.29;93700.38;4884898;29;20083;-81
2023/12/10 04:03:08;;;;;;;57.22;32.40;;;;;;;1.49;63.21;93672.34;4881304;29;20032;-81
2023/12/10 04:05:35;;;;;;;60.88;33.28;;;;;;;1.15;62.90;93656.28;4886225;29;20040;-81
2023/12/10 04:08:00;;;;;;;52.80;27.45;;;;;;;1.39;62.99;93665.25;4882317;29;20114;-81
2023/12/10 04:10:26;;;;;;;53.95;31.05;;;;;;;1.66;62.44;93693.88;4884230;29;20111;-82
2023/12/10 04:12:52;;;;;;;51.35;29.20;;;;;;;1.85;62.46;93696.78;4883884;29;20059;-82
2023/12/10 04:15:18;;;;;;;55.78;31.20;;;;;;;1.91;62.31;93695.78;4884304;29;20131;-79
2023/12/10 04:17:44;;;;;;;58.10;31.08;;;;;;;1.90;61.97;93699.44;4884902;29;20535;-80
2023/12/10 04:20:10;;;;;;;49.50;28.25;;;;;;;1.70;61.51;93683.66;4899180;29;20099;-81
2023/12/10 04:22:36;;;;;;;59.55;31.33;;;;;;;1.71;62.15;93690.47;4894269;29;20055;-79
2023/12/10 04:25:01;;;;;;;50.97;29.95;;;;;;;1.74;62.04;93701.22;4884809;29;20568;-81
2023/12/10 04:27:26;;;;;;;57.08;30.10;;;;;;;1.64;62.07;93702.00;4880760;29;20084;-82
2023/12/10 04:29:53;;;;;;;52.85;30.63;;;;;;;1.80;62.06;93699.41;4883006;29;20053;-82
2023/12/10 04:32:18;;;;;;;50.08;28.77;;;;;;;1.63;61.80;93689.94;4884344;29;20033;-80
2023/12/10 04:34:44;;;;;;;49.63;28.10;;;;;;;1.80;61.45;93681.84;4885048;29;20409;-82
2023/12/10 04:37:10;;;;;;;49.20;28.08;;;;;;;1.61;61.87;93712.22;4898532;29;20056;-82
2023/12/10 04:39:35;;;;;;;45.03;25.75;;;;;;;1.46;62.47;93694.63;4880201;29;20032;-82
2023/12/10 04:42:01;;;;;;;47.50;27.23;;;;;;;1.66;62.49;93704.38;4884056;29;20084;-82
2023/12/10 04:44:26;;;;;;;48.65;26.67;;;;;;;1.86;62.09;93690.50;4882575;29;20069;-82
2023/12/10 04:46:52;;;;;;;47.72;26.80;;;;;;;1.68;61.86;93689.94;4881617;29;20063;-82
2023/12/10 04:49:17;;;;;;;43.75;26.00;;;;;;;1.64;61.96;93696.75;4883788;29;20032;-81
2023/12/10 04:51:43;;;;;;;48.03;27.08;;;;;;;1.67;61.87;93685.75;4880838;29;20036;-83
2023/12/10 04:54:08;;;;;;;45.83;26.30;;;;;;;1.66;62.24;93694.69;4881627;29;20032;-80
2023/12/10 04:56:34;;;;;;;45.55;25.38;;;;;;;1.56;62.47;93676.31;4884755;29;20120;-81
2023/12/10 04:58:59;;;;;;;49.45;28.42;;;;;;;1.68;62.58;93705.66;4883273;29;20423;-81
2023/12/10 05:01:25;;;;;;;46.70;27.52;;;;;;;1.92;61.81;93705.19;4883855;29;20256;-82
2023/12/10 05:03:50;;;;;;;51.67;28.15;;;;;;;1.84;62.05;93713.56;4882777;29;20069;-82
2023/12/10 05:06:16;;;;;;;52.17;29.13;;;;;;;1.51;62.23;93686.00;4885885;29;20396;-81
2023/12/10 05:08:42;;;;;;;48.00;27.33;;;;;;;1.43;63.45;93704.81;4881866;29;20037;-81
2023/12/10 05:11:09;;;;;;;46.97;25.98;;;;;;;1.43;63.09;93695.13;4885336;29;20585;-83
2023/12/10 05:13:35;;;;;;;52.08;26.98;;;;;;;1.44;63.50;93691.47;4885403;29;20036;-80
2023/12/10 05:16:01;;;;;;;45.42;26.05;;;;;;;1.78;62.76;93693.63;4882966;29;20048;-79
2023/12/10 05:18:26;;;;;;;48.35;26.70;;;;;;;1.58;62.10;93687.31;4884201;29;20409;-80
2023/12/10 05:20:52;;;;;;;48.90;27.95;;;;;;;1.64;62.51;93696.75;4883993;29;20036;-81
2023/12/10 05:23:18;;;;;;;46.78;25.00;;;;;;;1.68;62.08;93699.63;4880400;29;20674;-81
2023/12/10 05:25:43;;;;;;;42.13;23.45;;;;;;;1.70;61.62;93699.38;4884544;29;20040;-81
2023/12/10 05:28:09;;;;;;;43.78;23.83;;;;;;;1.50;61.63;93679.16;4882856;29;20401;-81
2023/12/10 05:30:34;;;;;;;38.22;21.15;;;;;;;1.71;61.65;93714.06;4885590;29;20039;-79
2023/12/10 05:33:00;;;;;;;41.92;22.35;;;;;;;1.65;61.66;93703.59;4880781;29;20084;-82
2023/12/10 05:35:25;;;;;;;37.38;22.92;;;;;;;1.76;61.67;93700.97;4884778;29;20044;-82
2023/12/10 05:37:51;;;;;;;40.35;23.70;;;;;;;1.58;61.93;93687.31;4877510;29;20111;-81
2023/12/10 05:40:16;;;;;;;37.10;21.83;;;;;;;1.63;61.53;93684.69;4883082;29;20020;-82
2023/12/10 05:42:42;;;;;;;44.83;25.30;;;;;;;1.70;61.39;93694.16;4883964;29;20071;-81
2023/12/10 05:45:07;;;;;;;56.95;29.08;;;;;;;1.61;61.57;93702.53;4883383;29;20505;-82
2023/12/10 05:47:33;;;;;;;56.95;31.25;;;;;;;1.59;61.67;93709.84;4883156;29;20071;-82
2023/12/10 05:49:59;;;;;;;54.40;30.17;;;;;;;1.35;61.60;93682.53;4881506;29;20071;-82
2023/12/10 05:52:24;;;;;;;56.17;29.92;;;;;;;1.63;61.59;93705.66;4884590;29;20418;-81
2023/12/10 05:54:50;;;;;;;57.13;29.38;;;;;;;1.74;61.28;93710.91;4882816;29;20351;-82
2023/12/10 05:57:16;;;;;;;52.17;27.67;;;;;;;1.78;60.94;93696.25;4886216;29;20528;-80
2023/12/10 05:59:41;;;;;;;53.50;30.38;;;;;;;1.73;60.89;93699.66;4881068;29;20036;-82
2023/12/10 06:02:07;;;;;;;61.20;32.85;;;;;;;1.62;60.93;93677.88;4884422;29;20048;-82
2023/12/10 06:04:32;;;;;;;56.95;30.70;;;;;;;1.55;60.93;93672.09;4881282;29;21087;-81
2023/12/10 06:06:57;;;;;;;53.83;30.23;;;;;;;1.55;60.92;93687.84;4882839;29;20258;-81
2023/12/10 06:09:23;;;;;;;60.58;32.72;;;;;;;1.61;61.12;93691.25;4880231;29;20551;-82
2023/12/10 06:11:49;;;;;;;55.65;31.25;;;;;;;1.50;60.92;93672.09;4883121;29;20040;-81
2023/12/10 06:14:14;;;;;;;55.75;29.85;;;;;;;1.59;61.01;93717.72;4882356;29;20505;-80
2023/12/10 06:16:39;;;;;;;53.90;30.30;;;;;;;1.47;61.50;93706.66;4882341;29;20065;-81
2023/12/10 06:19:05;;;;;;;53.53;27.63;;;;;;;0.84;63.64;93675.59;4882357;29;20038;-80
2023/12/10 06:21:32;;;;;;;51.53;29.85;;;;;;;1.16;62.91;93694.53;4882813;29;20135;-81
2023/12/10 06:23:57;;;;;;;50.03;29.35;;;;;;;1.40;62.07;93705.34;4882770;29;20592;-81
2023/12/10 06:26:23;;;;;;;64.95;37.90;;;;;;;0.74;61.72;93601.16;4893080;29;20100;-80
2023/12/10 06:28:49;;;;;;;78.35;47.83;;;;;;;1.42;61.71;93708.50;4881240;29;20033;-81
2023/12/10 06:31:14;;;;;;;60.60;39.33;;;;;;;1.37;61.81;93683.09;4881403;29;20159;-80
2023/12/10 06:33:46;;;;;;;64.55;37.05;;;;;;;1.62;60.94;93708.53;4889081;29;20127;-81
2023/12/10 06:36:11;;;;;;;58.85;36.10;;;;;;;1.78;60.25;93701.47;4892889;29;20039;-81
2023/12/10 06:38:37;;;;;;;56.38;31.35;;;;;;;1.44;60.97;93699.34;4892335;29;20028;-82
2023/12/10 06:41:03;;;;;;;65.43;41.13;;;;;;;1.31;61.59;93715.56;4884905;29;20028;-81
2023/12/10 06:43:28;;;;;;;55.10;32.60;;;;;;;0.31;61.64;93567.50;4883701;29;20441;-83
2023/12/10 06:45:58;;;;;;;57.72;33.60;;;;;;;1.29;62.02;93709.78;4883149;29;20201;-80
2023/12/10 06:48:24;;;;;;;58.00;33.90;;;;;;;1.49;61.27;93730.81;4881536;29;20103;-82
2023/12/10 06:50:50;;;;;;;65.32;37.92;;;;;;;1.50;61.11;93734.22;4882313;29;20044;-81
2023/12/10 06:53:15;;;;;;;58.72;35.78;;;;;;;1.48;60.62;93716.13;4880345;29;20040;-82
2023/12/10 06:55:41;;;;;;;61.72;35.70;;;;;;;1.30;61.02;93721.84;4881152;29;20237;-82
2023/12/10 06:58:06;;;;;;;56.00;31.55;;;;;;;1.25;61.87;93742.78;4881131;29;20044;-80
2023/12/10 07:00:32;;;;;;;48.92;31.05;;;;;;;1.35;61.79;93745.44;4880918;29;20048;-82
2023/12/10 07:02:57;;;;;;;49.97;29.95;;;;;;;1.42;61.60;93735.50;4882406;29;20072;-81
2023/12/10 07:05:23;;;;;;;57.13;32.85;;;;;;;1.42;61.31;93729.47;4879518;29;20618;-81
2023/12/10 07:07:48;;;;;;;47.70;29.27;;;;;;;1.40;61.49;93721.88;4884388;29;20063;-83
2023/12/10 07:10:14;;;;;;;47.92;27.52;;;;;;;1.60;61.35;93753.38;4882105;29;20759;-78
2023/12/10 07:12:39;;;;;;;44.35;26.30;;;;;;;1.63;61.68;93750.22;4884648;29;20143;-81
2023/12/10 07:15:05;;;;;;;46.88;27.58;;;;;;;1.63;61.66;93739.75;4882418;29;20127;-81
2023/12/10 07:17:31;;;;;;;45.53;27.63;;;;;;;1.52;61.43;93708.53;4879514;29;20069;-79
2023/12/10 07:19:56;;;;;;;47.38;28.67;;;;;;;1.83;61.11;93746.06;4882981;29;20116;-81
2023/12/10 07:22:22;;;;;;;48.17;29.05;;;;;;;1.77;61.33;93739.22;4888615;29;20476;-82
2023/12/10 07:24:47;;;;;;;47.75;29.77;;;;;;;1.60;61.76;93732.41;4893318;29;20043;-80
2023/12/10 07:27:13;;;;;;;49.15;29.92;;;;;;;1.78;61.70;93738.19;4884513;29;20095;-79
2023/12/10 07:29:38;;;;;;;47.85;28.77;;;;;;;1.79;61.76;93748.44;4879617;29;20084;-83
2023/12/10 07:32:04;;;;;;;44.20;28.33;;;;;;;1.80;61.62;93738.72;4882372;29;20059;-80
2023/12/10 07:34:29;;;;;;;40.92;25.67;;;;;;;1.01;63.41;93725.91;4881646;29;20047;-80
2023/12/10 07:36:55;;;;;;;42.65;26.05;;;;;;;0.56;65.82;93752.63;4895525;29;20160;-79
2023/12/10 07:39:20;;;;;;;40.72;24.13;;;;;;;0.23;67.86;93757.13;4880696;29;20033;-80
2023/12/10 07:41:46;;;;;;;45.97;25.33;;;;;;;-0.03;69.39;93751.91;4884585;29;20044;-81
2023/12/10 07:44:11;;;;;;;43.67;25.02;;;;;;;0.15;68.86;93725.41;4881862;29;20259;-82
2023/12/10 07:46:37;;;;;;;38.10;24.70;;;;;;;0.66;66.82;93739.59;4897910;29;20040;-79
2023/12/10 07:49:02;;;;;;;39.65;23.40;;;;;;;0.75;66.05;93749.34;4889746;29;20041;-81
2023/12/10 07:51:28;;;;;;;41.53;24.85;;;;;;;0.46;66.73;93735.03;4893412;29;20097;-81
2023/12/10 07:53:53;;;;;;;43.88;26.80;;;;;;;0.74;66.75;93747.00;4884187;29;20048;-82
2023/12/10 07:56:20;;;;;;;35.85;24.30;;;;;;;1.25;65.50;93755.88;4880454;29;20036;-80
2023/12/10 07:58:45;;;;;;;43.78;26.17;;;;;;;0.74;65.86;93752.25;4874771;29;20028;-79
2023/12/10 08:01:11;;;;;;;47.78;26.70;;;;;;;0.47;66.70;93712.28;4873979;29;20484;-80
2023/12/10 08:03:36;;;;;;;40.05;27.02;;;;;;;1.09;65.34;93752.41;4868110;29;20487;-81
2023/12/10 08:06:03;;;;;;;41.15;24.38;;;;;;;1.02;63.97;93730.91;4876891;29;20188;-81
2023/12/10 08:08:29;;;;;;;36.92;22.17;;;;;;;1.25;64.51;93763.75;4869035;29;20103;-82
2023/12/10 08:10:54;;;;;;;37.25;24.92;;;;;;;1.29;64.16;93751.69;4873214;29;20033;-82
2023/12/10 08:13:20;;;;;;;39.35;25.23;;;;;;;1.73;63.29;93764.41;4888328;29;20031;-82
2023/12/10 08:15:45;;;;;;;42.40;25.88;;;;;;;1.26;63.87;93749.59;4879287;29;20092;-80
2023/12/10 08:18:10;;;;;;;43.67;25.17;;;;;;;0.97;64.48;93769.38;4878044;29;20036;-80
2023/12/10 08:20:36;;;;;;;40.35;24.02;;;;;;;0.60;65.53;93738.00;4877323;29;20068;-82
2023/12/10 08:23:01;;;;;;;44.80;26.60;;;;;;;1.04;66.08;93760.22;4874692;29;20565;-81
2023/12/10 08:25:27;;;;;;;38.53;24.77;;;;;;;1.46;63.96;93752.28;4881053;29;20024;-82
2023/12/10 08:27:52;;;;;;;43.35;25.77;;;;;;;1.77;62.87;93757.59;4877927;29;20159;-80
2023/12/10 08:30:18;;;;;;;39.80;24.50;;;;;;;1.90;61.88;93757.13;4878315;29;20107;-82
2023/12/10 08:32:43;;;;;;;41.08;26.50;;;;;;;1.93;61.74;93751.38;4878771;29;20044;-81
2023/12/10 08:35:09;;;;;;;45.45;26.08;;;;;;;1.41;62.61;93744.41;4875498;29;20044;-80
2023/12/10 08:37:34;;;;;;;47.72;30.65;;;;;;;1.10;64.34;93747.94;4880582;29;20047;-81
2023/12/10 08:40:04;;;;;;;45.53;27.85;;;;;;;0.82;65.99;93735.25;4875566;29;20066;-80
2023/12/10 08:42:30;;;;;;;45.17;27.70;;;;;;;0.90;66.46;93742.63;4878474;29;20048;-80
2023/12/10 08:44:57;;;;;;;45.03;27.42;;;;;;;1.10;65.96;93729.63;4877301;29;20582;-80
2023/12/10 08:47:22;;;;;;;42.08;25.85;;;;;;;1.49;64.55;93743.91;4876550;29;20131;-82
2023/12/10 08:49:48;;;;;;;43.63;26.75;;;;;;;1.44;63.66;93727.38;4872336;29;20560;-80
2023/12/10 08:52:13;;;;;;;40.95;25.58;;;;;;;1.49;63.17;93699.34;4877570;29;20099;-81
2023/12/10 08:54:39;;;;;;;43.83;25.33;;;;;;;1.60;62.83;93732.41;4874583;29;20161;-82
2023/12/10 08:57:04;;;;;;;45.95;26.42;;;;;;;1.46;63.21;93731.31;4874377;29;20104;-81
2023/12/10 08:59:30;;;;;;;43.72;28.40;;;;;;;1.65;62.98;93719.31;4876735;29;20059;-81
2023/12/10 09:01:55;;;;;;;45.17;26.08;;;;;;;1.60;62.52;93716.69;4875048;29;20479;-80
2023/12/10 09:04:21;;;;;;;44.83;26.90;;;;;;;1.78;62.40;93702.28;4875960;29;20043;-81
2023/12/10 09:06:46;;;;;;;48.95;25.48;;;;;;;1.70;62.28;93704.63;4878315;29;20040;-80
2023/12/10 09:09:12;;;;;;;42.90;25.13;;;;;;;2.02;62.00;93716.50;4878538;29;20630;-82
2023/12/10 09:11:38;;;;;;;51.08;30.30;;;;;;;2.05;61.74;93695.00;4875630;29;20591;-80
2023/12/10 09:14:03;;;;;;;54.17;31.88;;;;;;;2.01;61.02;93674.81;4889740;29;20119;-80
2023/12/10 09:16:29;;;;;;;49.60;28.75;;;;;;;2.26;61.00;93701.00;4879332;29;20548;-80
2023/12/10 09:18:54;;;;;;;50.15;29.38;;;;;;;1.23;60.54;93535.28;4876289;29;20104;-80
2023/12/10 09:21:19;;;;;;;54.55;29.80;;;;;;;2.31;60.55;93680.00;4874086;29;20052;-80
2023/12/10 09:23:45;;;;;;;51.80;30.23;;;;;;;2.40;60.69;93706.53;4878429;29;20037;-80
2023/12/10 09:26:10;;;;;;;61.15;34.25;;;;;;;2.24;60.30;93684.75;4874006;29;20309;-77
2023/12/10 09:28:36;;;;;;;51.55;31.23;;;;;;;2.45;60.24;93701.25;4876873;29;20378;-80
2023/12/10 09:31:02;;;;;;;51.90;30.83;;;;;;;2.43;60.40;93700.72;4872824;29;20125;-80
2023/12/10 09:33:27;;;;;;;53.65;30.05;;;;;;;2.32;60.37;93702.56;4875228;29;20040;-80
2023/12/10 09:35:53;;;;;;;55.90;30.02;;;;;;;2.25;60.49;93680.28;4873245;29;20044;-80
2023/12/10 09:38:18;;;;;;;54.13;31.17;;;;;;;2.57;60.18;93709.63;4874888;29;20048;-76
2023/12/10 09:40:44;;;;;;;49.67;28.70;;;;;;;2.55;60.02;93689.97;4874995;29;20028;-77
2023/12/10 09:43:10;;;;;;;51.20;30.20;;;;;;;2.40;59.95;93678.41;4875716;29;20060;-80
2023/12/10 09:45:35;;;;;;;46.28;28.80;;;;;;;2.59;59.81;93672.63;4888914;29;20167;-80
2023/12/10 09:48:02;;;;;;;48.20;28.80;;;;;;;2.56;59.41;93650.28;4873237;29;20580;-79
2023/12/10 09:50:31;;;;;;;42.05;26.52;;;;;;;2.80;59.22;93684.63;4875181;29;20044;-79
2023/12/10 09:52:56;;;;;;;197.50;125.80;;;;;;;2.85;58.95;93671.47;4871275;29;20545;-80
2023/12/10 09:55:21;;;;;;;85.55;63.13;;;;;;;2.86;58.85;93671.22;4869065;29;20031;-79
2023/12/10 09:57:48;;;;;;;77.60;48.65;;;;;;;2.73;58.55;93644.75;4873469;29;20509;-79
2023/12/10 10:00:14;;;;;;;47.22;29.58;;;;;;;2.76;58.54;93675.72;4873635;29;20128;-80
2023/12/10 10:02:40;;;;;;;46.97;29.92;;;;;;;2.48;60.04;93637.72;4874499;29;20103;-80
2023/12/10 10:05:09;;;;;;;52.10;30.67;;;;;;;2.55;59.86;93658.44;4873051;29;20602;-78
2023/12/10 10:07:35;;;;;;;56.78;31.80;;;;;;;1.99;62.27;93671.63;4873899;29;20059;-80
2023/12/10 10:10:01;;;;;;;53.22;29.20;;;;;;;2.38;61.43;93677.13;4876838;29;20366;-80
2023/12/10 10:12:29;;;;;;;53.53;30.92;;;;;;;2.59;60.84;93670.78;4873489;29;20052;-80
2023/12/10 10:14:59;;;;;;;54.33;29.08;;;;;;;2.79;60.03;93673.31;4890484;29;20039;-79
2023/12/10 10:17:35;;;;;;;47.67;28.67;;;;;;;2.88;59.76;93668.31;4872587;29;20120;-79
2023/12/10 10:20:04;;;;;;;50.35;32.65;;;;;;;3.07;58.92;93666.69;4874689;29;20052;-80
2023/12/10 10:22:30;;;;;;;51.90;30.35;;;;;;;3.02;59.02;93653.56;4866054;29;20032;-80
2023/12/10 10:24:56;;;;;;;47.10;27.63;;;;;;;3.11;58.17;93630.13;4873420;29;20489;-80
2023/12/10 10:27:22;;;;;;;48.67;29.13;;;;;;;3.26;58.38;93658.97;4877630;29;20058;-81
2023/12/10 10:29:53;;;;;;;49.78;30.85;;;;;;;3.32;58.65;93671.03;4882734;29;20419;-80
2023/12/10 10:32:22;;;;;;;52.25;31.42;;;;;;;3.41;58.55;93661.50;4876541;29;20075;-80
2023/12/10 10:34:48;;;;;;;47.25;29.67;;;;;;;3.17;58.02;93614.06;4876603;29;20412;-80
2023/12/10 10:37:15;;;;;;;62.05;36.83;;;;;;;3.56;58.17;93658.00;4873855;29;20035;-80
2023/12/10 10:39:41;;;;;;;43.15;27.00;;;;;;;3.50;57.37;93638.06;4873523;29;20049;-80
2023/12/10 10:42:08;;;;;;;45.40;29.05;;;;;;;2.92;57.71;93595.81;4873163;29;20541;-80
2023/12/10 10:44:41;;;;;;;50.08;28.17;;;;;;;3.12;58.51;93661.41;4875293;29;20062;-81
2023/12/10 10:47:08;;;;;;;51.85;42.80;;;;;;;3.13;58.99;93655.09;4873947;29;20170;-80
2023/12/10 10:49:37;;;;;;;45.13;27.35;;;;;;;3.32;59.01;93621.88;4876198;29;20032;-81
2023/12/10 10:52:07;;;;;;;56.53;37.28;;;;;;;3.44;57.90;93623.34;4885820;29;20060;-80
2023/12/10 10:54:34;;;;;;;42.30;28.10;;;;;;;3.45;57.88;93636.25;4874531;29;20072;-80
2023/12/10 10:57:01;;;;;;;40.72;26.02;;;;;;;3.52;58.61;93618.34;4869015;29;20088;-80
2023/12/10 10:59:31;;;;;;;42.28;23.92;;;;;;;3.57;58.18;93604.34;4872132;29;20381;-79
2023/12/10 11:02:01;;;;;;;38.10;23.33;;;;;;;3.86;58.02;93631.50;4871139;29;20056;-80
2023/12/10 11:04:37;;;;;;;47.50;26.80;;;;;;;3.54;58.35;93623.28;4874647;29;20087;-80
2023/12/10 11:07:03;;;;;;;47.78;28.85;;;;;;;3.19;59.46;93609.31;4873989;29;20032;-82
2023/12/10 11:09:31;;;;;;;42.20;25.95;;;;;;;3.52;59.27;93599.13;4874293;29;20555;-79
2023/12/10 11:11:58;;;;;;;38.20;23.83;;;;;;;3.87;58.96;93606.72;4872056;29;20632;-82
2023/12/10 11:14:23;;;;;;;48.13;26.17;;;;;;;4.09;58.19;93609.72;4872218;29;20044;-79
2023/12/10 11:17:02;;;;;;;43.67;25.23;;;;;;;4.20;58.16;93605.94;4878974;29;20046;-79
2023/12/10 11:19:28;;;;;;;40.22;23.20;;;;;;;4.16;57.67;93593.59;4874455;29;20341;-80